sensor_id;sensor_type;location;lat;lon;timestamp;temperature;humidity
37874;DHT22;23709;48.078;11.684;2023-06-26T00:01:10;17.30;98.60
37874;DHT22;23709;48.078;11.684;2023-06-26T00:03:42;17.30;99.40
37874;DHT22;23709;48.078;11.684;2023-06-26T00:06:14;17.20;99.20
37874;DHT22;23709;48.078;11.684;2023-06-26T00:08:46;17.20;99.80
37874;DHT22;23709;48.078;11.684;2023-06-26T00:11:19;17.10;99.70
37874;DHT22;23709;48.078;11.684;2023-06-26T00:13:51;17.10;99.90
37874;DHT22;23709;48.078;11.684;2023-06-26T00:16:24;17.00;99.90
37874;DHT22;23709;48.078;11.684;2023-06-26T00:18:56;16.80;99.90
37874;DHT22;23709;48.078;11.684;2023-06-26T00:21:28;16.90;99.30
37874;DHT22;23709;48.078;11.684;2023-06-26T00:24:00;17.10;98.50
37874;DHT22;23709;48.078;11.684;2023-06-26T00:26:32;17.00;98.70
37874;DHT22;23709;48.078;11.684;2023-06-26T00:29:04;16.90;98.80
37874;DHT22;23709;48.078;11.684;2023-06-26T00:31:37;16.90;98.80
37874;DHT22;23709;48.078;11.684;2023-06-26T00:34:12;17.00;98.60
37874;DHT22;23709;48.078;11.684;2023-06-26T00:36:44;16.80;98.60
37874;DHT22;23709;48.078;11.684;2023-06-26T00:39:17;16.80;98.90
37874;DHT22;23709;48.078;11.684;2023-06-26T00:41:49;16.70;99.00
37874;DHT22;23709;48.078;11.684;2023-06-26T00:44:22;16.60;98.70
37874;DHT22;23709;48.078;11.684;2023-06-26T00:46:55;16.80;98.30
37874;DHT22;23709;48.078;11.684;2023-06-26T00:49:28;16.80;98.10
37874;DHT22;23709;48.078;11.684;2023-06-26T00:52:01;16.80;98.30
37874;DHT22;23709;48.078;11.684;2023-06-26T00:54:35;16.80;99.30
37874;DHT22;23709;48.078;11.684;2023-06-26T00:57:12;16.70;99.60
37874;DHT22;23709;48.078;11.684;2023-06-26T00:59:44;16.70;99.10
37874;DHT22;23709;48.078;11.684;2023-06-26T01:02:16;16.80;98.60
37874;DHT22;23709;48.078;11.684;2023-06-26T01:04:54;16.90;98.20
37874;DHT22;23709;48.078;11.684;2023-06-26T01:07:27;16.90;98.30
37874;DHT22;23709;48.078;11.684;2023-06-26T01:09:59;16.80;98.50
37874;DHT22;23709;48.078;11.684;2023-06-26T01:12:33;16.80;98.90
37874;DHT22;23709;48.078;11.684;2023-06-26T01:15:05;16.70;99.40
37874;DHT22;23709;48.078;11.684;2023-06-26T01:17:39;16.70;99.90
37874;DHT22;23709;48.078;11.684;2023-06-26T01:20:15;16.70;99.60
37874;DHT22;23709;48.078;11.684;2023-06-26T01:23:08;16.60;99.80
37874;DHT22;23709;48.078;11.684;2023-06-26T01:26:19;16.50;99.70
37874;DHT22;23709;48.078;11.684;2023-06-26T01:28:53;16.50;99.70
37874;DHT22;23709;48.078;11.684;2023-06-26T01:31:26;16.60;99.70
37874;DHT22;23709;48.078;11.684;2023-06-26T01:34:00;16.40;99.90
37874;DHT22;23709;48.078;11.684;2023-06-26T01:36:33;16.20;99.90
37874;DHT22;23709;48.078;11.684;2023-06-26T01:39:05;16.10;99.90
37874;DHT22;23709;48.078;11.684;2023-06-26T01:41:38;16.10;99.90
37874;DHT22;23709;48.078;11.684;2023-06-26T01:44:24;16.20;99.90
37874;DHT22;23709;48.078;11.684;2023-06-26T01:47:04;16.20;99.90
37874;DHT22;23709;48.078;11.684;2023-06-26T01:49:47;16.20;99.90
37874;DHT22;23709;48.078;11.684;2023-06-26T01:52:44;16.30;99.90
37874;DHT22;23709;48.078;11.684;2023-06-26T01:55:34;16.20;99.90
37874;DHT22;23709;48.078;11.684;2023-06-26T01:58:10;16.20;99.90
37874;DHT22;23709;48.078;11.684;2023-06-26T02:00:43;16.30;99.70
37874;DHT22;23709;48.078;11.684;2023-06-26T02:03:16;16.30;99.90
37874;DHT22;23709;48.078;11.684;2023-06-26T02:05:49;16.20;99.90
37874;DHT22;23709;48.078;11.684;2023-06-26T02:08:23;16.10;99.90
37874;DHT22;23709;48.078;11.684;2023-06-26T02:11:01;15.90;99.90
37874;DHT22;23709;48.078;11.684;2023-06-26T02:13:34;15.90;99.90
37874;DHT22;23709;48.078;11.684;2023-06-26T02:16:06;15.90;99.90
37874;DHT22;23709;48.078;11.684;2023-06-26T02:18:38;15.70;99.90
37874;DHT22;23709;48.078;11.684;2023-06-26T02:21:10;15.80;99.90
37874;DHT22;23709;48.078;11.684;2023-06-26T02:23:43;15.80;99.90
37874;DHT22;23709;48.078;11.684;2023-06-26T02:46:38;15.80;99.90
37874;DHT22;23709;48.078;11.684;2023-06-26T02:49:11;15.70;99.90
37874;DHT22;23709;48.078;11.684;2023-06-26T02:51:43;15.50;99.90
37874;DHT22;23709;48.078;11.684;2023-06-26T02:54:25;15.50;99.90
37874;DHT22;23709;48.078;11.684;2023-06-26T02:57:03;15.70;99.90
37874;DHT22;23709;48.078;11.684;2023-06-26T02:59:36;15.80;99.90
37874;DHT22;23709;48.078;11.684;2023-06-26T03:02:09;15.80;99.90
37874;DHT22;23709;48.078;11.684;2023-06-26T03:04:46;15.80;99.90
37874;DHT22;23709;48.078;11.684;2023-06-26T03:07:21;15.80;99.90
37874;DHT22;23709;48.078;11.684;2023-06-26T03:09:53;15.80;99.90
37874;DHT22;23709;48.078;11.684;2023-06-26T03:12:26;15.60;99.90
37874;DHT22;23709;48.078;11.684;2023-06-26T03:14:58;15.70;99.90
37874;DHT22;23709;48.078;11.684;2023-06-26T03:17:31;15.70;99.90
37874;DHT22;23709;48.078;11.684;2023-06-26T03:20:08;15.70;99.90
37874;DHT22;23709;48.078;11.684;2023-06-26T03:22:52;15.60;99.90
37874;DHT22;23709;48.078;11.684;2023-06-26T03:25:26;15.50;99.90
37874;DHT22;23709;48.078;11.684;2023-06-26T03:28:25;15.60;99.90
37874;DHT22;23709;48.078;11.684;2023-06-26T03:30:57;15.50;99.90
37874;DHT22;23709;48.078;11.684;2023-06-26T03:33:30;15.50;99.90
37874;DHT22;23709;48.078;11.684;2023-06-26T03:36:03;15.50;99.90
37874;DHT22;23709;48.078;11.684;2023-06-26T03:38:36;15.30;99.90
37874;DHT22;23709;48.078;11.684;2023-06-26T03:41:10;15.40;99.90
37874;DHT22;23709;48.078;11.684;2023-06-26T03:43:43;15.40;99.90
37874;DHT22;23709;48.078;11.684;2023-06-26T03:46:23;15.50;99.90
37874;DHT22;23709;48.078;11.684;2023-06-26T03:48:56;15.50;99.90
37874;DHT22;23709;48.078;11.684;2023-06-26T03:51:28;15.50;99.90
37874;DHT22;23709;48.078;11.684;2023-06-26T03:54:03;15.50;99.90
37874;DHT22;23709;48.078;11.684;2023-06-26T03:56:36;15.60;99.90
37874;DHT22;23709;48.078;11.684;2023-06-26T08:15:18;15.70;99.90
37874;DHT22;23709;48.078;11.684;2023-06-26T08:17:51;26.80;68.40
37874;DHT22;23709;48.078;11.684;2023-06-26T08:20:23;26.60;67.00
37874;DHT22;23709;48.078;11.684;2023-06-26T08:22:55;26.60;66.80
37874;DHT22;23709;48.078;11.684;2023-06-26T08:25:27;26.70;66.20
37874;DHT22;23709;48.078;11.684;2023-06-26T08:27:59;26.80;66.50
37874;DHT22;23709;48.078;11.684;2023-06-26T08:30:32;26.80;65.10
37874;DHT22;23709;48.078;11.684;2023-06-26T08:56:08;26.70;64.60
37874;DHT22;23709;48.078;11.684;2023-06-26T09:06:21;27.40;62.50
37874;DHT22;23709;48.078;11.684;2023-06-26T11:16:50;31.10;48.60
37874;DHT22;23709;48.078;11.684;2023-06-26T11:19:22;31.90;47.50
37874;DHT22;23709;48.078;11.684;2023-06-26T11:21:57;32.00;47.70
37874;DHT22;23709;48.078;11.684;2023-06-26T11:24:30;32.00;46.90
37874;DHT22;23709;48.078;11.684;2023-06-26T11:27:04;31.80;47.50
37874;DHT22;23709;48.078;11.684;2023-06-26T11:29:36;31.60;47.90
37874;DHT22;23709;48.078;11.684;2023-06-26T11:42:20;32.10;48.10
37874;DHT22;23709;48.078;11.684;2023-06-26T11:44:52;33.40;47.30
37874;DHT22;23709;48.078;11.684;2023-06-26T15:49:56;33.40;46.60
37874;DHT22;23709;48.078;11.684;2023-06-26T15:52:28;30.70;48.40
37874;DHT22;23709;48.078;11.684;2023-06-26T15:55:00;30.50;49.30
37874;DHT22;23709;48.078;11.684;2023-06-26T16:00:05;30.30;50.70
37874;DHT22;23709;48.078;11.684;2023-06-26T16:02:43;30.00;51.10
37874;DHT22;23709;48.078;11.684;2023-06-26T16:05:16;30.00;51.10
37874;DHT22;23709;48.078;11.684;2023-06-26T16:07:48;29.90;51.00
37874;DHT22;23709;48.078;11.684;2023-06-26T16:10:28;29.80;51.20
37874;DHT22;23709;48.078;11.684;2023-06-26T16:13:02;29.80;52.00
37874;DHT22;23709;48.078;11.684;2023-06-26T16:15:34;29.50;52.70
37874;DHT22;23709;48.078;11.684;2023-06-26T16:18:06;29.10;54.00
37874;DHT22;23709;48.078;11.684;2023-06-26T16:20:39;29.10;55.40
37874;DHT22;23709;48.078;11.684;2023-06-26T16:23:11;28.90;56.70
37874;DHT22;23709;48.078;11.684;2023-06-26T16:25:43;28.70;56.90
37874;DHT22;23709;48.078;11.684;2023-06-26T16:28:16;28.60;57.80
37874;DHT22;23709;48.078;11.684;2023-06-26T16:30:48;28.60;58.20
37874;DHT22;23709;48.078;11.684;2023-06-26T16:33:23;28.20;58.90
37874;DHT22;23709;48.078;11.684;2023-06-26T16:35:55;28.30;58.80
37874;DHT22;23709;48.078;11.684;2023-06-26T16:38:27;28.30;59.40
37874;DHT22;23709;48.078;11.684;2023-06-26T16:41:00;28.10;59.50
37874;DHT22;23709;48.078;11.684;2023-06-26T16:43:32;28.20;59.70
37874;DHT22;23709;48.078;11.684;2023-06-26T16:46:05;28.10;59.70
37874;DHT22;23709;48.078;11.684;2023-06-26T16:48:37;28.10;60.00
37874;DHT22;23709;48.078;11.684;2023-06-26T16:51:10;28.10;60.40
37874;DHT22;23709;48.078;11.684;2023-06-26T16:53:42;28.00;60.20
37874;DHT22;23709;48.078;11.684;2023-06-26T16:56:15;27.90;60.90
37874;DHT22;23709;48.078;11.684;2023-06-26T16:58:51;27.90;60.60
37874;DHT22;23709;48.078;11.684;2023-06-26T17:01:24;27.80;61.00
37874;DHT22;23709;48.078;11.684;2023-06-26T17:03:56;27.90;60.70
37874;DHT22;23709;48.078;11.684;2023-06-26T17:06:29;27.90;61.50
37874;DHT22;23709;48.078;11.684;2023-06-26T17:09:01;27.90;61.30
37874;DHT22;23709;48.078;11.684;2023-06-26T17:11:33;27.80;61.10
37874;DHT22;23709;48.078;11.684;2023-06-26T17:14:05;27.80;60.40
37874;DHT22;23709;48.078;11.684;2023-06-26T17:16:37;27.70;61.00
37874;DHT22;23709;48.078;11.684;2023-06-26T17:19:09;27.70;60.50
37874;DHT22;23709;48.078;11.684;2023-06-26T17:21:41;27.60;60.10
37874;DHT22;23709;48.078;11.684;2023-06-26T17:24:14;27.60;61.40
37874;DHT22;23709;48.078;11.684;2023-06-26T17:26:46;27.70;61.20
37874;DHT22;23709;48.078;11.684;2023-06-26T17:29:18;27.60;60.40
37874;DHT22;23709;48.078;11.684;2023-06-26T17:31:50;27.70;61.10
37874;DHT22;23709;48.078;11.684;2023-06-26T17:34:22;27.60;60.80
37874;DHT22;23709;48.078;11.684;2023-06-26T17:36:54;27.70;61.60
37874;DHT22;23709;48.078;11.684;2023-06-26T17:39:26;27.70;60.60
37874;DHT22;23709;48.078;11.684;2023-06-26T17:41:58;27.80;61.00
37874;DHT22;23709;48.078;11.684;2023-06-26T17:49:39;27.80;60.30
37874;DHT22;23709;48.078;11.684;2023-06-26T17:52:12;27.70;60.60
37874;DHT22;23709;48.078;11.684;2023-06-26T17:54:44;27.70;61.10
37874;DHT22;23709;48.078;11.684;2023-06-26T17:57:16;27.70;61.90
37874;DHT22;23709;48.078;11.684;2023-06-26T17:59:49;27.60;62.00
37874;DHT22;23709;48.078;11.684;2023-06-26T18:02:21;27.60;62.20
37874;DHT22;23709;48.078;11.684;2023-06-26T18:04:53;27.50;62.80
37874;DHT22;23709;48.078;11.684;2023-06-26T18:07:25;27.30;62.70
37874;DHT22;23709;48.078;11.684;2023-06-26T18:09:58;27.30;63.30
37874;DHT22;23709;48.078;11.684;2023-06-26T18:12:30;27.20;63.60
37874;DHT22;23709;48.078;11.684;2023-06-26T18:15:02;27.10;64.00
37874;DHT22;23709;48.078;11.684;2023-06-26T18:17:35;26.90;65.00
37874;DHT22;23709;48.078;11.684;2023-06-26T18:20:07;26.90;64.70
37874;DHT22;23709;48.078;11.684;2023-06-26T18:22:40;26.80;65.50
37874;DHT22;23709;48.078;11.684;2023-06-26T18:25:15;26.70;66.40
37874;DHT22;23709;48.078;11.684;2023-06-26T18:27:47;26.50;67.00
37874;DHT22;23709;48.078;11.684;2023-06-26T18:30:19;26.20;67.60
37874;DHT22;23709;48.078;11.684;2023-06-26T18:32:52;26.10;68.40
37874;DHT22;23709;48.078;11.684;2023-06-26T18:35:24;25.90;69.00
37874;DHT22;23709;48.078;11.684;2023-06-26T18:37:56;25.90;69.00
37874;DHT22;23709;48.078;11.684;2023-06-26T18:40:30;25.90;70.00
37874;DHT22;23709;48.078;11.684;2023-06-26T18:43:02;25.60;70.90
37874;DHT22;23709;48.078;11.684;2023-06-26T18:45:34;25.60;71.50
37874;DHT22;23709;48.078;11.684;2023-06-26T18:48:06;25.60;71.70
37874;DHT22;23709;48.078;11.684;2023-06-26T18:50:38;25.60;71.20
37874;DHT22;23709;48.078;11.684;2023-06-26T18:53:10;25.60;72.80
37874;DHT22;23709;48.078;11.684;2023-06-26T18:55:42;25.30;73.60
37874;DHT22;23709;48.078;11.684;2023-06-26T18:58:14;25.20;74.10
37874;DHT22;23709;48.078;11.684;2023-06-26T19:00:47;25.00;75.50
37874;DHT22;23709;48.078;11.684;2023-06-26T19:03:19;24.80;75.90
37874;DHT22;23709;48.078;11.684;2023-06-26T19:05:51;24.80;75.50
37874;DHT22;23709;48.078;11.684;2023-06-26T19:08:23;24.90;76.40
37874;DHT22;23709;48.078;11.684;2023-06-26T19:10:55;24.90;76.10
37874;DHT22;23709;48.078;11.684;2023-06-26T19:13:27;24.80;77.10
37874;DHT22;23709;48.078;11.684;2023-06-26T19:16:00;24.70;77.50
37874;DHT22;23709;48.078;11.684;2023-06-26T19:18:32;24.70;77.20
37874;DHT22;23709;48.078;11.684;2023-06-26T19:21:04;24.70;77.50
37874;DHT22;23709;48.078;11.684;2023-06-26T19:23:37;24.70;77.70
37874;DHT22;23709;48.078;11.684;2023-06-26T19:26:09;24.70;78.10
37874;DHT22;23709;48.078;11.684;2023-06-26T19:28:41;24.70;77.90
37874;DHT22;23709;48.078;11.684;2023-06-26T19:31:13;24.60;77.80
37874;DHT22;23709;48.078;11.684;2023-06-26T19:33:46;24.50;78.50
37874;DHT22;23709;48.078;11.684;2023-06-26T19:36:18;24.50;78.70
37874;DHT22;23709;48.078;11.684;2023-06-26T19:38:53;24.40;79.00
37874;DHT22;23709;48.078;11.684;2023-06-26T19:41:28;24.40;79.30
37874;DHT22;23709;48.078;11.684;2023-06-26T19:44:01;24.30;79.10
37874;DHT22;23709;48.078;11.684;2023-06-26T19:46:34;24.20;79.70
37874;DHT22;23709;48.078;11.684;2023-06-26T19:49:06;24.30;79.60
37874;DHT22;23709;48.078;11.684;2023-06-26T19:51:38;24.30;79.80
37874;DHT22;23709;48.078;11.684;2023-06-26T19:54:10;24.20;80.00
37874;DHT22;23709;48.078;11.684;2023-06-26T19:56:42;24.20;80.40
37874;DHT22;23709;48.078;11.684;2023-06-26T19:59:15;24.20;80.90
37874;DHT22;23709;48.078;11.684;2023-06-26T20:01:47;24.00;80.80
37874;DHT22;23709;48.078;11.684;2023-06-26T20:04:20;24.00;81.10
37874;DHT22;23709;48.078;11.684;2023-06-26T20:06:53;24.00;81.10
37874;DHT22;23709;48.078;11.684;2023-06-26T20:09:25;23.90;80.80
37874;DHT22;23709;48.078;11.684;2023-06-26T20:12:01;24.00;80.40
37874;DHT22;23709;48.078;11.684;2023-06-26T20:14:34;24.10;80.30
37874;DHT22;23709;48.078;11.684;2023-06-26T20:17:06;23.70;79.20
37874;DHT22;23709;48.078;11.684;2023-06-26T20:19:38;23.80;78.70
37874;DHT22;23709;48.078;11.684;2023-06-26T20:22:10;23.70;78.60
37874;DHT22;23709;48.078;11.684;2023-06-26T20:24:42;23.70;78.60
37874;DHT22;23709;48.078;11.684;2023-06-26T20:27:15;23.70;78.80
37874;DHT22;23709;48.078;11.684;2023-06-26T20:29:53;23.70;78.70
37874;DHT22;23709;48.078;11.684;2023-06-26T20:32:29;23.60;78.40
37874;DHT22;23709;48.078;11.684;2023-06-26T20:35:01;23.60;78.50
37874;DHT22;23709;48.078;11.684;2023-06-26T20:37:33;23.70;78.70
37874;DHT22;23709;48.078;11.684;2023-06-26T20:40:06;23.50;78.10
37874;DHT22;23709;48.078;11.684;2023-06-26T20:42:38;23.50;78.00
37874;DHT22;23709;48.078;11.684;2023-06-26T20:45:12;23.50;78.30
37874;DHT22;23709;48.078;11.684;2023-06-26T20:47:44;23.40;78.60
37874;DHT22;23709;48.078;11.684;2023-06-26T20:50:18;23.30;78.50
37874;DHT22;23709;48.078;11.684;2023-06-26T20:52:50;23.20;78.40
37874;DHT22;23709;48.078;11.684;2023-06-26T20:55:23;23.10;77.90
37874;DHT22;23709;48.078;11.684;2023-06-26T20:57:55;23.10;78.20
37874;DHT22;23709;48.078;11.684;2023-06-26T21:00:27;23.00;78.40
37874;DHT22;23709;48.078;11.684;2023-06-26T21:02:59;23.10;78.50
37874;DHT22;23709;48.078;11.684;2023-06-26T21:05:32;23.00;78.70
37874;DHT22;23709;48.078;11.684;2023-06-26T21:08:04;22.90;79.20
37874;DHT22;23709;48.078;11.684;2023-06-26T21:10:36;22.80;80.50
37874;DHT22;23709;48.078;11.684;2023-06-26T21:13:09;22.80;81.30
37874;DHT22;23709;48.078;11.684;2023-06-26T21:15:41;22.80;82.10
37874;DHT22;23709;48.078;11.684;2023-06-26T21:18:13;22.70;82.60
37874;DHT22;23709;48.078;11.684;2023-06-26T21:20:46;22.60;83.50
37874;DHT22;23709;48.078;11.684;2023-06-26T21:23:18;22.60;83.50
37874;DHT22;23709;48.078;11.684;2023-06-26T21:25:50;22.60;83.80
37874;DHT22;23709;48.078;11.684;2023-06-26T21:28:22;22.60;83.80
37874;DHT22;23709;48.078;11.684;2023-06-26T21:30:55;22.50;83.20
37874;DHT22;23709;48.078;11.684;2023-06-26T21:33:27;22.50;82.50
37874;DHT22;23709;48.078;11.684;2023-06-26T21:36:01;22.40;82.20
37874;DHT22;23709;48.078;11.684;2023-06-26T21:38:33;22.30;82.60
37874;DHT22;23709;48.078;11.684;2023-06-26T21:41:05;22.30;82.30
37874;DHT22;23709;48.078;11.684;2023-06-26T21:43:38;22.30;82.30
37874;DHT22;23709;48.078;11.684;2023-06-26T21:46:10;22.30;82.30
37874;DHT22;23709;48.078;11.684;2023-06-26T21:48:42;22.20;82.50
37874;DHT22;23709;48.078;11.684;2023-06-26T21:51:14;22.10;82.00
37874;DHT22;23709;48.078;11.684;2023-06-26T21:53:47;22.10;82.90
37874;DHT22;23709;48.078;11.684;2023-06-26T21:56:19;22.00;82.60
37874;DHT22;23709;48.078;11.684;2023-06-26T21:58:52;22.00;82.70
37874;DHT22;23709;48.078;11.684;2023-06-26T22:01:24;21.90;82.30
37874;DHT22;23709;48.078;11.684;2023-06-26T22:03:56;21.90;81.50
37874;DHT22;23709;48.078;11.684;2023-06-26T22:06:28;21.90;80.40
37874;DHT22;23709;48.078;11.684;2023-06-26T22:09:00;21.80;79.40
37874;DHT22;23709;48.078;11.684;2023-06-26T22:11:32;21.90;78.00
37874;DHT22;23709;48.078;11.684;2023-06-26T22:14:05;21.80;77.20
37874;DHT22;23709;48.078;11.684;2023-06-26T22:16:37;21.80;76.00
37874;DHT22;23709;48.078;11.684;2023-06-26T22:19:09;21.80;76.60
37874;DHT22;23709;48.078;11.684;2023-06-26T22:21:41;21.90;78.10
37874;DHT22;23709;48.078;11.684;2023-06-26T22:24:14;21.80;77.30
37874;DHT22;23709;48.078;11.684;2023-06-26T22:26:47;21.80;78.50
37874;DHT22;23709;48.078;11.684;2023-06-26T22:29:19;21.80;78.70
37874;DHT22;23709;48.078;11.684;2023-06-26T22:31:51;21.80;78.50
37874;DHT22;23709;48.078;11.684;2023-06-26T22:34:23;21.70;78.10
37874;DHT22;23709;48.078;11.684;2023-06-26T22:36:55;21.80;77.50
37874;DHT22;23709;48.078;11.684;2023-06-26T22:39:27;21.70;76.80
37874;DHT22;23709;48.078;11.684;2023-06-26T22:41:59;21.80;76.50
37874;DHT22;23709;48.078;11.684;2023-06-26T22:44:31;21.70;76.00
37874;DHT22;23709;48.078;11.684;2023-06-26T22:47:03;21.70;74.70
37874;DHT22;23709;48.078;11.684;2023-06-26T22:49:36;21.70;74.20
37874;DHT22;23709;48.078;11.684;2023-06-26T22:52:09;21.70;73.80
37874;DHT22;23709;48.078;11.684;2023-06-26T22:54:41;21.70;72.70
37874;DHT22;23709;48.078;11.684;2023-06-26T22:57:13;21.70;71.00
37874;DHT22;23709;48.078;11.684;2023-06-26T22:59:45;21.60;69.60
37874;DHT22;23709;48.078;11.684;2023-06-26T23:02:18;21.70;69.30
37874;DHT22;23709;48.078;11.684;2023-06-26T23:04:50;21.60;69.00
37874;DHT22;23709;48.078;11.684;2023-06-26T23:07:22;21.70;68.40
37874;DHT22;23709;48.078;11.684;2023-06-26T23:09:54;21.70;68.30
37874;DHT22;23709;48.078;11.684;2023-06-26T23:12:27;21.70;69.40
37874;DHT22;23709;48.078;11.684;2023-06-26T23:15:00;21.60;68.50
37874;DHT22;23709;48.078;11.684;2023-06-26T23:17:34;21.50;69.30
37874;DHT22;23709;48.078;11.684;2023-06-26T23:20:07;21.50;69.30
37874;DHT22;23709;48.078;11.684;2023-06-26T23:22:41;21.50;68.80
37874;DHT22;23709;48.078;11.684;2023-06-26T23:25:14;21.50;68.90
37874;DHT22;23709;48.078;11.684;2023-06-26T23:27:47;21.50;68.90
37874;DHT22;23709;48.078;11.684;2023-06-26T23:30:19;21.40;68.00
37874;DHT22;23709;48.078;11.684;2023-06-26T23:32:51;21.20;67.90
37874;DHT22;23709;48.078;11.684;2023-06-26T23:35:24;21.30;68.60
37874;DHT22;23709;48.078;11.684;2023-06-26T23:37:56;21.30;68.20
37874;DHT22;23709;48.078;11.684;2023-06-26T23:40:33;21.10;68.10
37874;DHT22;23709;48.078;11.684;2023-06-26T23:43:05;21.10;67.70
37874;DHT22;23709;48.078;11.684;2023-06-26T23:45:38;21.10;67.00
37874;DHT22;23709;48.078;11.684;2023-06-26T23:48:11;21.00;66.60
37874;DHT22;23709;48.078;11.684;2023-06-26T23:50:43;21.10;66.80
37874;DHT22;23709;48.078;11.684;2023-06-26T23:53:15;21.00;66.60
37874;DHT22;23709;48.078;11.684;2023-06-26T23:55:47;21.00;66.00
37874;DHT22;23709;48.078;11.684;2023-06-26T23:58:19;21.00;66.00
